• Join FlightAware (Why Join?)
  • Login
  • US Flag 
Gobble Gobble! 
08:45PM EST


 

Airport Tracker/Info


-or-


 

Live Flight TrackerFlight Track Log ✈ N641BB ✈ 22-Jun-2013 ✈ KLEX - KPBX

Flight Track Log - Related Links

Times and Time Zones

All times are in EDT time to prevent confusion due to time zone crossing. See the N641BB flight status page for this flight to view local times or setup timezone preferences in your user account.

Time Position Orientation Groundspeed Altitude Reporting Facility
EDT Latitude Longitude Course Direction KTS MPH feet Rate Location/Type
07:52PM 37.9936 -84.5633 107° East 113 130 2,500  Level Indianapolis Center
07:53PM 37.9892 -84.5258 99° East 109 125 3,100 480 Climbing Indianapolis Center
07:54PM 37.9819 -84.4892 104° East 108 124 3,600 540 Climbing Indianapolis Center
07:55PM 37.9753 -84.4514 103° East 109 125 4,300 660 Climbing Indianapolis Center
07:56PM 37.9743 -84.3297 106° East  Level Estimated
07:56PM 37.9658 -84.4164 109° East 106 122 5,000  Level Indianapolis Center
07:57PM 37.9632 -84.2835 107° East  Level FlightAware Approximate
07:57PM 37.9550 -84.3750 108° East 118 136 5,000  Level Indianapolis Center
07:58PM 37.9411 -84.3297 111° Southeast 134 154 5,000  Level Indianapolis Center
07:59PM 37.9308 -84.2814 105° East 139 160 5,000  Level Indianapolis Center
08:00PM 37.9211 -84.2339 105° East 141 162 5,000  Level Indianapolis Center
08:01PM 37.9089 -84.1778 105° East 141 162 5,000  Level Indianapolis Center
08:02PM 37.8983 -84.1303 106° East 140 161 5,000  Level Indianapolis Center
08:03PM 37.8883 -84.0822 105° East 140 161 5,000  Level Indianapolis Center
08:04PM 37.8783 -84.0358 105° East 139 160 5,000  Level Indianapolis Center
08:05PM 37.8689 -83.9881 104° East 139 160 5,000  Level Indianapolis Center
08:06PM 37.8583 -83.9400 106° East 141 162 5,000  Level Indianapolis Center
08:07PM 37.8489 -83.8939 105° East 138 159 5,000  Level Indianapolis Center
08:08PM 37.8389 -83.8456 105° East 139 160 5,000  Level Indianapolis Center
08:09PM 37.8431 -83.7961 84° East 141 162 5,000  Level Indianapolis Center
08:10PM 37.8478 -83.7469 83° East 140 161 5,000  Level Indianapolis Center
08:11PM 37.8389 -83.6903 101° East 141 162 5,000  Level Indianapolis Center
08:12PM 37.8292 -83.6428 105° East 141 162 5,000  Level Indianapolis Center
08:13PM 37.8208 -83.5947 102° East 140 161 5,000  Level Indianapolis Center
08:14PM 37.8131 -83.5472 102° East 139 160 5,000  Level Indianapolis Center
08:15PM 37.8039 -83.5008 104° East 138 159 5,000  Level Indianapolis Center
08:16PM 37.7958 -83.4539 102° East 137 158 5,000  Level Indianapolis Center
08:17PM 37.7883 -83.4058 101° East 137 158 5,000 -120 Level Indianapolis Center
08:18PM 37.7756 -83.3608 110° East 138 159 4,800 -240 Descending Indianapolis Center
08:19PM 37.7617 -83.3131 110° East 141 162 4,600 -180 Descending Indianapolis Center
08:20PM 37.7475 -83.2636 110° East 145 167 4,500 -60 Descending Indianapolis Center
08:21PM 37.7350 -83.2103 106° East 141 162 4,500  Level Indianapolis Center
08:22PM 37.7225 -83.1664 110° East 137 158 4,500  Level Indianapolis Center
08:23PM 37.7111 -83.1217 108° East 134 154 4,500  Level Indianapolis Center
08:24PM 37.7000 -83.0761 107° East 135 155 4,500  Level Indianapolis Center
08:25PM 37.6875 -83.0322 110° East 134 154 4,500  Level Indianapolis Center
08:26PM 37.6764 -82.9900 108° East 130 150 4,500  Level Indianapolis Center
08:27PM 37.6644 -82.9453 109° East 131 151 4,500  Level Indianapolis Center
08:28PM 37.6514 -82.9003 110° East 135 155 4,500  Level Indianapolis Center